Latest Coastal Weather Observations for Shark Bay Airport

IDW60701

Issued at 10:15 am WST Wednesday 3 September 2014 (issued every 10 minutes, with the page automatically refreshed every 10 minutes)

About coastal observations | Map of coastal stations | Coastal observations for WA | Marine services | Other Formats
Station Details ID: 006105 Name: SHARK BAY AIRPORT Lat: -25.89 Lon: 113.58 Height: 33.8 m
Data from the previous 72 hours. | See also: Recent months for locations in Western Australia
Date/Time
WST
Temp

°C
Wind Pressure Rain
since 9am
mm
Weather Cloud Vis
km
Sea
Height
m
Swell
Dir
 
Speed
knots
Gust
knots
hPa Trend Height
m
Period
s
Dir
03/10:00am 20.4 S 10 13 1019.2 - 0.0 - - - - - - -
03/09:30am 20.0 S 7 11 1018.9 - 0.0 - - - - - - -
03/09:00am 19.6 SSE 6 8 1018.6 - 0.0 - - - - - - -
03/08:30am 18.9 S 7 8 1018.6 - 0.0 - - - - - - -
03/08:00am 18.6 SSE 4 5 1018.5 - 0.0 - - - - - - -
03/07:30am 18.3 S 4 5 1018.4 - 0.0 - - - - - - -
03/07:00am 18.1 SSE 4 5 1017.7 - 0.0 - - - - - - -
03/06:30am 18.3 S 5 6 1017.7 - 0.0 - - - - - - -
03/06:00am 18.2 S 4 5 1017.2 - 0.0 - - - - - - -
03/05:30am 18.3 SE 4 5 1016.8 - 0.0 - - - - - - -
03/05:00am 18.1 SE 5 6 1016.2 - 0.0 - - - - - - -
03/04:30am 18.2 SE 5 6 1016.4 - 0.0 - - - - - - -
03/04:00am 18.3 ESE 7 8 1016.4 - 0.0 - - - - - - -
03/03:30am 17.8 SE 5 6 1016.7 - 0.0 - - - - - - -
03/03:00am 17.7 SSE 5 6 1016.8 - 0.0 - - - - - - -
03/02:30am 17.8 S 5 6 1016.8 - 0.0 - - - - - - -
03/02:00am 17.8 SSE 5 6 1016.7 - 0.0 - - - - - - -
03/01:30am 18.0 SE 5 6 1016.9 - 0.0 - - - - - - -
03/01:00am 17.7 SSE 6 7 1017.0 - 0.0 - - - - - - -
03/12:30am 16.7 SSE 6 7 1017.4 - 0.0 - - - - - - -
03/12:00am 17.0 S 5 6 1017.6 - 0.0 - - - - - - -
 
Date/Time
WST
Temp

°C
Wind Pressure Rain
since 9am
mm
Weather Cloud Vis
km
Sea
Height
m
Swell
Dir
 
Speed
knots
Gust
knots
hPa Trend Height
m
Period
s
Dir
02/11:30pm 17.1 SE 5 6 1017.4 - 0.0 - - - - - - -
02/11:00pm 17.3 SE 5 7 1017.7 - 0.0 - - - - - - -
02/10:30pm 18.7 S 7 10 1018.2 - 0.0 - - - - - - -
02/10:00pm 19.2 S 8 11 1018.2 - 0.0 - - - - - - -
02/09:30pm 19.3 S 7 9 1018.4 - 0.0 - - - - - - -
02/09:00pm 19.7 S 9 11 1018.3 - 0.0 - - - - - - -
02/08:30pm 19.9 S 9 11 1018.3 - 0.0 - - - - - - -
02/08:00pm 20.3 SSW 8 9 1018.3 - 0.0 - - - - - - -
02/07:30pm 20.0 SSW 7 8 1017.9 - 0.0 - - - - - - -
02/07:00pm 20.8 SSW 7 8 1017.8 - 0.0 - - - - - - -
02/06:30pm 20.9 SSW 7 9 1017.6 - 0.0 - - - - - - -
02/06:00pm 21.9 SSW 9 12 1017.3 - 0.0 - - - - - - -
02/05:30pm 22.8 SW 10 14 1017.2 - 0.0 - - - - - - -
02/05:00pm 23.4 SW 12 17 1016.9 - 0.0 - - - - - - -
02/04:30pm 24.2 SW 10 12 1016.2 - 0.0 - - - - - - -
02/04:00pm 24.4 W 11 14 1016.2 - 0.0 - - - - - - -
02/03:30pm 26.2 W 10 13 1015.9 - 0.0 - - - - - - -
02/03:00pm 26.5 W 10 12 1015.8 - 0.0 - - - - - - -
02/02:30pm 26.6 WSW 10 14 1015.7 - 0.0 - - - - - - -
02/02:00pm 27.2 WSW 8 11 1015.6 - 0.0 - - - - - - -
02/01:30pm 27.3 W 8 12 1015.9 - 0.0 - - - - - - -
02/01:00pm 27.1 WSW 7 11 1016.2 - 0.0 - - - - - - -
02/12:30pm 26.7 WSW 10 13 1016.6 - 0.0 - - - - - - -
02/12:00pm 26.8 W 9 13 1016.8 - 0.0 - - - - - - -
02/11:30am 26.4 WNW 8 12 1017.0 - 0.0 - - - - - - -
02/11:00am 25.7 W 9 14 1017.4 - 0.0 - - - - - - -
02/10:30am 25.3 W 10 13 1017.8 - 0.0 - - - - - - -
02/10:00am 24.7 W 11 13 1017.8 - 0.0 - - - - - - -
02/09:30am 24.0 WNW 8 11 1017.4 - 0.0 - - - - - - -
02/09:00am 23.4 W 10 12 1017.4 - 0.0 - - - - - - -
02/08:30am 21.4 WNW 6 9 1016.9 - 0.0 - - - - - - -
02/08:00am 17.6 NW 7 7 1016.6 - 0.0 - - - - - - -
02/07:30am 16.5 NW 8 8 1016.5 - 0.0 - - - - - - -
02/07:00am 14.9 WNW 6 7 1015.8 - 0.0 - - - - - - -
02/06:30am 13.6 WNW 6 7 1015.7 - 0.0 - - - - - - -
02/06:00am 12.9 NE 4 4 1015.2 - 0.0 - - - - - - -
02/05:30am 11.7 ENE 4 5 1015.0 - 0.0 - - - - - - -
02/05:00am 15.0 ENE 4 4 1015.0 - 0.0 - - - - - - -
02/04:30am 15.4 SSE 3 4 1014.8 - 0.0 - - - - - - -
02/04:00am 15.6 SSE 2 3 1014.8 - 0.0 - - - - - - -
02/03:30am 15.6 S 3 5 1014.7 - 0.0 - - - - - - -
02/03:00am 16.4 S 5 5 1014.7 - 0.0 - - - - - - -
02/02:30am 15.8 SE 5 5 1014.7 - 0.0 - - - - - - -
02/02:00am 16.2 SSE 4 5 1014.6 - 0.0 - - - - - - -
02/01:30am 16.7 CALM 0 0 1014.9 - 0.0 - - - - - - -
02/01:00am 17.1 S 3 4 1015.2 - 0.0 - - - - - - -
02/12:30am 17.1 S 5 6 1015.4 - 0.0 - - - - - - -
02/12:00am 17.6 S 5 6 1015.5 - 0.0 - - - - - - -
 
Date/Time
WST
Temp

°C
Wind Pressure Rain
since 9am
mm
Weather Cloud Vis
km
Sea
Height
m
Swell
Dir
 
Speed
knots
Gust
knots
hPa Trend Height
m
Period
s
Dir
01/11:30pm 18.3 S 6 7 1015.5 - 0.0 - - - - - - -
01/11:00pm 18.7 S 5 7 1015.7 - 0.0 - - - - - - -
01/10:30pm 18.4 SSW 5 6 1015.6 - 0.0 - - - - - - -
01/10:00pm 18.8 SSW 5 7 1015.7 - 0.0 - - - - - - -
01/09:30pm 19.5 S 5 6 1015.6 - 0.0 - - - - - - -
01/09:00pm 19.6 SSW 5 6 1015.7 - 0.0 - - - - - - -
01/08:30pm 19.8 SW 4 5 1015.6 - 0.0 - - - - - - -
01/08:00pm 21.1 S 6 8 1015.2 - 0.0 - - - - - - -
01/07:30pm 21.4 SSW 6 7 1014.8 - 0.0 - - - - - - -
01/07:00pm 21.2 SW 5 7 1014.9 - 0.0 - - - - - - -
01/06:30pm 21.8 WSW 6 7 1014.9 - 0.0 - - - - - - -
01/06:00pm 23.4 SW 5 7 1014.6 - 0.0 - - - - - - -
01/05:30pm 24.7 SW 8 11 1014.4 - 0.0 - - - - - - -
01/05:00pm 26.1 SW 8 11 1014.2 - 0.0 - - - - - - -
01/04:30pm 27.4 SW 9 12 1014.0 - 0.0 - - - - - - -
01/04:00pm 27.2 SW 9 12 1014.2 - 0.0 - - - - - - -
01/03:30pm 28.9 SW 9 13 1014.1 - 0.0 - - - - - - -
01/03:00pm 30.3 W 6 9 1014.2 - 0.0 - - - - - - -
01/02:30pm 29.8 N 7 13 1014.4 - 0.0 - - - - - - -
01/02:00pm 29.9 NNE 6 12 1014.7 - 0.0 - - - - - - -
01/01:30pm 29.1 NE 7 11 1014.9 - 0.0 - - - - - - -
01/01:00pm 27.6 ENE 7 11 1015.6 - 0.0 - - - - - - -
01/12:30pm 27.2 ENE 8 12 1016.1 - 0.0 - - - - - - -
01/12:00pm 25.5 E 9 13 1016.2 - 0.0 - - - - - - -
01/11:30am 25.9 E 10 15 1016.6 - 0.0 - - - - - - -
01/11:00am 24.2 E 11 17 1017.2 - 0.0 - - - - - - -
01/10:30am 23.4 E 13 18 1017.3 - 0.0 - - - - - - -
01/10:00am 23.4 E 13 19 1017.4 - 0.0 - - - - - - -
01/09:30am 21.6 E 13 18 1018.2 - 0.0 - - - - - - -
01/09:00am 21.0 ESE 15 19 1017.9 - 0.0 - - - - - - -
01/08:30am 19.7 ESE 15 20 1017.8 - 0.0 - - - - - - -
01/08:00am 18.2 ESE 12 18 1017.7 - 0.0 - - - - - - -
01/07:30am 16.2 ESE 8 11 1017.7 - 0.0 - - - - - - -
01/07:00am 15.1 ESE 7 9 1017.4 - 0.0 - - - - - - -
01/06:30am 14.9 ESE 7 9 1017.2 - 0.0 - - - - - - -
01/06:00am 15.2 SE 7 11 1017.4 - 0.0 - - - - - - -
01/05:30am 15.8 SSE 9 13 1017.3 - 0.0 - - - - - - -
01/05:00am 16.1 SE 10 16 1016.7 - 0.0 - - - - - - -
01/04:30am 16.1 SSE 9 13 1016.8 - 0.0 - - - - - - -
01/04:00am 16.4 SSE 10 16 1016.6 - 0.0 - - - - - - -
01/03:30am 16.4 SSE 10 14 1016.7 - 0.0 - - - - - - -
01/03:00am 16.6 SSE 11 15 1016.6 - 0.0 - - - - - - -
01/02:30am 16.9 SSE 12 16 1016.6 - 0.0 - - - - - - -
01/02:00am 16.9 SSE 11 15 1016.7 - 0.0 - - - - - - -
01/01:30am 17.0 SSE 11 17 1016.9 - 0.0 - - - - - - -
01/01:00am 17.2 SSE 11 15 1016.9 - 0.0 - - - - - - -
01/12:30am 17.2 SSE 9 13 1016.9 - 0.0 - - - - - - -
01/12:00am 16.6 SSE 8 9 1017.5 - 0.0 - - - - - - -
 
Date/Time
WST
Temp

°C
Wind Pressure Rain
since 9am
mm
Weather Cloud Vis
km
Sea
Height
m
Swell
Dir
 
Speed
knots
Gust
knots
hPa Trend Height
m
Period
s
Dir
31/11:30pm 16.7 S 7 8 1017.8 - 0.0 - - - - - - -
31/11:00pm 16.5 SSE 5 6 1018.0 - 0.0 - - - - - - -
31/10:30pm 17.3 S 7 9 1018.4 - 0.0 - - - - - - -
31/10:00pm 17.8 S 7 11 1018.7 - 0.0 - - - - - - -
31/09:30pm 18.1 S 9 11 1019.0 - 0.0 - - - - - - -
31/09:00pm 18.4 S 10 12 1018.9 - 0.0 - - - - - - -
31/08:30pm 18.2 S 9 11 1018.3 - 0.0 - - - - - - -
31/08:00pm 18.4 S 8 10 1017.9 - 0.0 - - - - - - -
31/07:30pm 18.6 S 7 8 1017.5 - 0.0 - - - - - - -
31/07:00pm 19.4 S 8 11 1017.8 - 0.0 - - - - - - -
31/06:30pm 20.3 S 9 11 1017.5 - 0.0 - - - - - - -
31/06:00pm 21.2 SW 9 13 1017.2 - 0.0 - - - - - - -
31/05:30pm 22.1 SW 12 16 1017.3 - 0.0 - - - - - - -
31/05:00pm 22.8 SW 12 16 1017.4 - 0.0 - - - - - - -
31/04:30pm 23.3 SSW 13 17 1017.2 - 0.0 - - - - - - -
31/04:00pm 23.6 SSW 13 17 1017.0 - 0.0 - - - - - - -
31/03:30pm 24.0 SSW 12 16 1016.7 - 0.0 - - - - - - -
31/03:00pm 24.4 SSW 13 17 1016.5 - 0.0 - - - - - - -
31/02:30pm 24.8 SSW 13 17 1016.6 - 0.0 - - - - - - -
31/02:00pm 24.9 SW 12 15 1016.6 - 0.0 - - - - - - -
31/01:30pm 24.9 SW 12 17 1016.9 - 0.0 - - - - - - -
31/01:00pm 25.5 SSW 10 15 1017.2 - 0.0 - - - - - - -
31/12:30pm 25.1 SSW 8 13 1017.6 - 0.0 - - - - - - -
31/12:00pm 25.0 SSE 6 11 1018.0 - 0.0 - - - - - - -
31/11:30am 23.8 SSW 9 14 1018.3 - 0.0 - - - - - - -
31/11:00am 23.9 S 7 9 1018.6 - 0.0 - - - - - - -
31/10:30am 22.0 SSE 7 11 1018.9 - 0.0 - - - - - - -

Other Formats:

Comma delimited format used in spreadsheet applications
http://www.bom.gov.au/fwo/IDW60701/IDW60701.95402.axf

JavaScript Object Notation format (JSON) in row-major order
http://www.bom.gov.au/fwo/IDW60701/IDW60701.95402.json